sensor_id;sensor_type;location;lat;lon;timestamp;temperature;humidity
8463;DHT22;4268;52.506;13.462;2023-05-16T00:01:05;14.70;99.90
8463;DHT22;4268;52.506;13.462;2023-05-16T00:03:32;14.70;99.90
8463;DHT22;4268;52.506;13.462;2023-05-16T00:05:58;14.70;99.90
8463;DHT22;4268;52.506;13.462;2023-05-16T00:08:24;14.70;99.90
8463;DHT22;4268;52.506;13.462;2023-05-16T00:10:49;14.70;99.90
8463;DHT22;4268;52.506;13.462;2023-05-16T00:13:15;14.70;99.90
8463;DHT22;4268;52.506;13.462;2023-05-16T00:15:43;14.70;99.90
8463;DHT22;4268;52.506;13.462;2023-05-16T00:18:09;14.70;99.90
8463;DHT22;4268;52.506;13.462;2023-05-16T00:20:38;14.70;99.90
8463;DHT22;4268;52.506;13.462;2023-05-16T00:23:04;14.70;99.90
8463;DHT22;4268;52.506;13.462;2023-05-16T00:25:29;14.70;99.90
8463;DHT22;4268;52.506;13.462;2023-05-16T00:27:55;14.70;99.90
8463;DHT22;4268;52.506;13.462;2023-05-16T00:30:21;14.70;99.90
8463;DHT22;4268;52.506;13.462;2023-05-16T00:32:47;14.60;99.90
8463;DHT22;4268;52.506;13.462;2023-05-16T00:35:12;14.60;99.90
8463;DHT22;4268;52.506;13.462;2023-05-16T00:37:38;14.60;99.90
8463;DHT22;4268;52.506;13.462;2023-05-16T00:40:04;15.40;99.90
8463;DHT22;4268;52.506;13.462;2023-05-16T00:42:29;14.60;99.90
8463;DHT22;4268;52.506;13.462;2023-05-16T00:44:55;14.50;99.90
8463;DHT22;4268;52.506;13.462;2023-05-16T00:47:20;14.50;99.90
8463;DHT22;4268;52.506;13.462;2023-05-16T00:49:46;14.50;99.90
8463;DHT22;4268;52.506;13.462;2023-05-16T00:52:12;14.50;99.90
8463;DHT22;4268;52.506;13.462;2023-05-16T00:54:37;14.50;99.90
8463;DHT22;4268;52.506;13.462;2023-05-16T00:57:04;14.60;99.90
8463;DHT22;4268;52.506;13.462;2023-05-16T00:59:31;14.50;99.90
8463;DHT22;4268;52.506;13.462;2023-05-16T01:01:56;14.40;99.90
8463;DHT22;4268;52.506;13.462;2023-05-16T01:04:23;14.40;99.90
8463;DHT22;4268;52.506;13.462;2023-05-16T01:06:48;14.50;99.90
8463;DHT22;4268;52.506;13.462;2023-05-16T01:09:14;14.40;99.90
8463;DHT22;4268;52.506;13.462;2023-05-16T01:11:53;14.30;99.90
8463;DHT22;4268;52.506;13.462;2023-05-16T01:14:32;14.30;99.90
8463;DHT22;4268;52.506;13.462;2023-05-16T01:17:22;14.30;99.90
8463;DHT22;4268;52.506;13.462;2023-05-16T01:20:19;14.20;99.90
8463;DHT22;4268;52.506;13.462;2023-05-16T01:28:43;14.10;99.90
8463;DHT22;4268;52.506;13.462;2023-05-16T01:31:09;14.10;99.90
8463;DHT22;4268;52.506;13.462;2023-05-16T01:33:35;14.00;99.90
8463;DHT22;4268;52.506;13.462;2023-05-16T01:38:58;13.90;99.90
8463;DHT22;4268;52.506;13.462;2023-05-16T01:46:48;13.80;99.90
8463;DHT22;4268;52.506;13.462;2023-05-16T01:49:24;13.80;99.90
8463;DHT22;4268;52.506;13.462;2023-05-16T01:51:54;13.80;99.90
8463;DHT22;4268;52.506;13.462;2023-05-16T01:54:23;13.70;99.90
8463;DHT22;4268;52.506;13.462;2023-05-16T01:56:53;13.70;99.90
8463;DHT22;4268;52.506;13.462;2023-05-16T01:59:20;13.80;99.90
8463;DHT22;4268;52.506;13.462;2023-05-16T02:01:47;13.70;99.90
8463;DHT22;4268;52.506;13.462;2023-05-16T02:04:12;13.60;99.90
8463;DHT22;4268;52.506;13.462;2023-05-16T02:06:40;13.60;99.90
8463;DHT22;4268;52.506;13.462;2023-05-16T02:09:05;13.50;99.90
8463;DHT22;4268;52.506;13.462;2023-05-16T02:11:31;13.40;99.90
8463;DHT22;4268;52.506;13.462;2023-05-16T02:13:56;13.40;99.90
8463;DHT22;4268;52.506;13.462;2023-05-16T02:16:22;13.40;99.90
8463;DHT22;4268;52.506;13.462;2023-05-16T02:18:47;13.40;99.90
8463;DHT22;4268;52.506;13.462;2023-05-16T02:21:13;13.30;99.90
8463;DHT22;4268;52.506;13.462;2023-05-16T02:23:38;13.30;99.90
8463;DHT22;4268;52.506;13.462;2023-05-16T02:26:04;13.30;99.90
8463;DHT22;4268;52.506;13.462;2023-05-16T02:28:29;13.30;99.90
8463;DHT22;4268;52.506;13.462;2023-05-16T02:30:58;13.20;99.90
8463;DHT22;4268;52.506;13.462;2023-05-16T02:33:25;13.20;99.90
8463;DHT22;4268;52.506;13.462;2023-05-16T02:35:52;13.20;99.90
8463;DHT22;4268;52.506;13.462;2023-05-16T02:38:17;13.20;99.90
8463;DHT22;4268;52.506;13.462;2023-05-16T02:40:45;13.20;99.90
8463;DHT22;4268;52.506;13.462;2023-05-16T02:43:11;13.10;99.90
8463;DHT22;4268;52.506;13.462;2023-05-16T02:45:37;13.10;99.90
8463;DHT22;4268;52.506;13.462;2023-05-16T02:48:02;13.00;99.90
8463;DHT22;4268;52.506;13.462;2023-05-16T02:50:28;13.00;99.90
8463;DHT22;4268;52.506;13.462;2023-05-16T02:52:53;13.00;99.90
8463;DHT22;4268;52.506;13.462;2023-05-16T02:55:19;12.90;99.90
8463;DHT22;4268;52.506;13.462;2023-05-16T02:57:44;13.00;99.90
8463;DHT22;4268;52.506;13.462;2023-05-16T03:00:10;12.90;99.90
8463;DHT22;4268;52.506;13.462;2023-05-16T03:02:37;12.80;99.90
8463;DHT22;4268;52.506;13.462;2023-05-16T03:05:03;12.80;99.90
8463;DHT22;4268;52.506;13.462;2023-05-16T03:07:29;12.80;99.90
8463;DHT22;4268;52.506;13.462;2023-05-16T03:09:54;12.80;99.90
8463;DHT22;4268;52.506;13.462;2023-05-16T03:12:20;12.80;99.90
8463;DHT22;4268;52.506;13.462;2023-05-16T03:14:46;12.80;99.90
8463;DHT22;4268;52.506;13.462;2023-05-16T03:17:11;12.80;99.90
8463;DHT22;4268;52.506;13.462;2023-05-16T03:19:37;12.80;99.90
8463;DHT22;4268;52.506;13.462;2023-05-16T03:22:02;12.80;99.90
8463;DHT22;4268;52.506;13.462;2023-05-16T03:24:28;12.80;99.90
8463;DHT22;4268;52.506;13.462;2023-05-16T03:26:54;12.80;99.90
8463;DHT22;4268;52.506;13.462;2023-05-16T03:29:19;12.80;99.90
8463;DHT22;4268;52.506;13.462;2023-05-16T03:31:45;12.80;99.90
8463;DHT22;4268;52.506;13.462;2023-05-16T03:34:10;12.80;99.90
8463;DHT22;4268;52.506;13.462;2023-05-16T03:36:37;12.80;99.90
8463;DHT22;4268;52.506;13.462;2023-05-16T03:39:03;12.70;99.90
8463;DHT22;4268;52.506;13.462;2023-05-16T03:41:28;12.70;99.90
8463;DHT22;4268;52.506;13.462;2023-05-16T03:43:54;12.70;99.90
8463;DHT22;4268;52.506;13.462;2023-05-16T03:46:19;12.70;99.90
8463;DHT22;4268;52.506;13.462;2023-05-16T03:48:45;12.70;99.90
8463;DHT22;4268;52.506;13.462;2023-05-16T03:51:10;12.60;99.90
8463;DHT22;4268;52.506;13.462;2023-05-16T03:53:36;12.70;99.90
8463;DHT22;4268;52.506;13.462;2023-05-16T03:56:02;12.60;99.90
8463;DHT22;4268;52.506;13.462;2023-05-16T03:58:28;12.60;99.90
8463;DHT22;4268;52.506;13.462;2023-05-16T04:00:54;12.60;99.90
8463;DHT22;4268;52.506;13.462;2023-05-16T04:03:19;12.50;99.90
8463;DHT22;4268;52.506;13.462;2023-05-16T04:05:53;12.50;99.90
8463;DHT22;4268;52.506;13.462;2023-05-16T04:08:18;12.50;99.90
8463;DHT22;4268;52.506;13.462;2023-05-16T04:10:43;12.50;99.90
8463;DHT22;4268;52.506;13.462;2023-05-16T04:13:09;12.50;99.90
8463;DHT22;4268;52.506;13.462;2023-05-16T04:15:34;12.50;99.90
8463;DHT22;4268;52.506;13.462;2023-05-16T04:18:00;12.50;99.90
8463;DHT22;4268;52.506;13.462;2023-05-16T04:20:25;12.50;99.90
8463;DHT22;4268;52.506;13.462;2023-05-16T04:22:52;12.50;99.90
8463;DHT22;4268;52.506;13.462;2023-05-16T04:25:17;12.50;99.90
8463;DHT22;4268;52.506;13.462;2023-05-16T04:27:43;12.50;99.90
8463;DHT22;4268;52.506;13.462;2023-05-16T04:30:09;12.40;99.90
8463;DHT22;4268;52.506;13.462;2023-05-16T04:32:36;12.40;99.90
8463;DHT22;4268;52.506;13.462;2023-05-16T04:35:02;12.40;99.90
8463;DHT22;4268;52.506;13.462;2023-05-16T04:37:27;12.40;99.90
8463;DHT22;4268;52.506;13.462;2023-05-16T04:39:53;12.40;99.90
8463;DHT22;4268;52.506;13.462;2023-05-16T04:42:19;12.40;99.90
8463;DHT22;4268;52.506;13.462;2023-05-16T04:44:44;12.30;99.90
8463;DHT22;4268;52.506;13.462;2023-05-16T04:47:12;12.40;99.90
8463;DHT22;4268;52.506;13.462;2023-05-16T04:49:37;12.40;99.90
8463;DHT22;4268;52.506;13.462;2023-05-16T04:52:04;12.30;99.90
8463;DHT22;4268;52.506;13.462;2023-05-16T04:54:30;12.30;99.90
8463;DHT22;4268;52.506;13.462;2023-05-16T04:56:55;12.30;99.90
8463;DHT22;4268;52.506;13.462;2023-05-16T04:59:21;12.30;99.90
8463;DHT22;4268;52.506;13.462;2023-05-16T05:01:47;12.20;99.90
8463;DHT22;4268;52.506;13.462;2023-05-16T05:04:12;12.20;99.90
8463;DHT22;4268;52.506;13.462;2023-05-16T05:06:38;12.20;99.90
8463;DHT22;4268;52.506;13.462;2023-05-16T05:09:04;12.10;99.90
8463;DHT22;4268;52.506;13.462;2023-05-16T05:11:30;12.20;99.90
8463;DHT22;4268;52.506;13.462;2023-05-16T05:13:56;12.20;99.90
8463;DHT22;4268;52.506;13.462;2023-05-16T05:16:21;12.20;99.90
8463;DHT22;4268;52.506;13.462;2023-05-16T05:18:47;12.20;99.90
8463;DHT22;4268;52.506;13.462;2023-05-16T05:21:12;12.20;99.90
8463;DHT22;4268;52.506;13.462;2023-05-16T05:23:39;12.20;99.90
8463;DHT22;4268;52.506;13.462;2023-05-16T05:26:05;12.20;99.90
8463;DHT22;4268;52.506;13.462;2023-05-16T05:28:31;12.20;99.90
8463;DHT22;4268;52.506;13.462;2023-05-16T05:30:56;12.20;99.90
8463;DHT22;4268;52.506;13.462;2023-05-16T05:33:26;12.20;99.90
8463;DHT22;4268;52.506;13.462;2023-05-16T05:35:52;12.20;99.90
8463;DHT22;4268;52.506;13.462;2023-05-16T05:38:18;12.20;99.90
8463;DHT22;4268;52.506;13.462;2023-05-16T05:40:44;12.10;99.90
8463;DHT22;4268;52.506;13.462;2023-05-16T05:43:10;12.10;99.90
8463;DHT22;4268;52.506;13.462;2023-05-16T05:45:35;12.20;99.90
8463;DHT22;4268;52.506;13.462;2023-05-16T05:48:02;12.20;99.90
8463;DHT22;4268;52.506;13.462;2023-05-16T05:50:28;12.20;99.90
8463;DHT22;4268;52.506;13.462;2023-05-16T05:52:54;12.20;99.90
8463;DHT22;4268;52.506;13.462;2023-05-16T05:55:20;12.20;99.90
8463;DHT22;4268;52.506;13.462;2023-05-16T05:57:46;12.20;99.90
8463;DHT22;4268;52.506;13.462;2023-05-16T06:00:11;12.20;99.90
8463;DHT22;4268;52.506;13.462;2023-05-16T06:02:37;12.20;99.90
8463;DHT22;4268;52.506;13.462;2023-05-16T06:05:03;12.30;99.90
8463;DHT22;4268;52.506;13.462;2023-05-16T06:07:29;12.30;99.90
8463;DHT22;4268;52.506;13.462;2023-05-16T06:09:54;12.30;99.90
8463;DHT22;4268;52.506;13.462;2023-05-16T06:12:20;12.40;99.90
8463;DHT22;4268;52.506;13.462;2023-05-16T06:14:45;12.40;99.90
8463;DHT22;4268;52.506;13.462;2023-05-16T06:17:11;12.40;99.90
8463;DHT22;4268;52.506;13.462;2023-05-16T06:19:36;12.40;99.90
8463;DHT22;4268;52.506;13.462;2023-05-16T06:22:02;12.50;99.90
8463;DHT22;4268;52.506;13.462;2023-05-16T06:24:27;12.40;99.90
8463;DHT22;4268;52.506;13.462;2023-05-16T06:26:54;12.60;99.90
8463;DHT22;4268;52.506;13.462;2023-05-16T06:29:19;12.50;99.90
8463;DHT22;4268;52.506;13.462;2023-05-16T06:31:45;12.60;99.90
8463;DHT22;4268;52.506;13.462;2023-05-16T06:34:11;12.60;99.90
8463;DHT22;4268;52.506;13.462;2023-05-16T06:36:37;12.60;99.90
8463;DHT22;4268;52.506;13.462;2023-05-16T06:39:02;12.60;99.90
8463;DHT22;4268;52.506;13.462;2023-05-16T06:41:29;12.60;99.90
8463;DHT22;4268;52.506;13.462;2023-05-16T06:43:55;12.50;99.90
8463;DHT22;4268;52.506;13.462;2023-05-16T06:46:20;12.50;99.90
8463;DHT22;4268;52.506;13.462;2023-05-16T06:48:46;12.50;99.90
8463;DHT22;4268;52.506;13.462;2023-05-16T06:51:11;12.60;99.90
8463;DHT22;4268;52.506;13.462;2023-05-16T06:53:37;12.60;99.90
8463;DHT22;4268;52.506;13.462;2023-05-16T06:56:02;12.60;99.90
8463;DHT22;4268;52.506;13.462;2023-05-16T06:58:28;12.60;99.90
8463;DHT22;4268;52.506;13.462;2023-05-16T07:00:54;12.60;99.90
8463;DHT22;4268;52.506;13.462;2023-05-16T07:03:19;12.60;99.90
8463;DHT22;4268;52.506;13.462;2023-05-16T07:05:45;12.60;99.90
8463;DHT22;4268;52.506;13.462;2023-05-16T07:08:10;12.60;99.90
8463;DHT22;4268;52.506;13.462;2023-05-16T07:10:37;12.60;99.90
8463;DHT22;4268;52.506;13.462;2023-05-16T07:13:02;12.70;99.90
8463;DHT22;4268;52.506;13.462;2023-05-16T07:15:29;12.70;99.90
8463;DHT22;4268;52.506;13.462;2023-05-16T07:17:55;12.70;99.90
8463;DHT22;4268;52.506;13.462;2023-05-16T07:20:21;12.80;99.90
8463;DHT22;4268;52.506;13.462;2023-05-16T07:22:46;12.90;99.90
8463;DHT22;4268;52.506;13.462;2023-05-16T07:25:12;12.90;99.90
8463;DHT22;4268;52.506;13.462;2023-05-16T07:27:39;13.00;99.90
8463;DHT22;4268;52.506;13.462;2023-05-16T07:30:07;13.00;99.90
8463;DHT22;4268;52.506;13.462;2023-05-16T07:32:33;13.00;99.90
8463;DHT22;4268;52.506;13.462;2023-05-16T07:34:59;13.10;99.90
8463;DHT22;4268;52.506;13.462;2023-05-16T07:37:25;13.10;99.90
8463;DHT22;4268;52.506;13.462;2023-05-16T07:39:50;13.20;99.90
8463;DHT22;4268;52.506;13.462;2023-05-16T07:42:16;13.30;99.90
8463;DHT22;4268;52.506;13.462;2023-05-16T07:44:41;13.40;99.90
8463;DHT22;4268;52.506;13.462;2023-05-16T07:47:07;13.50;99.90
8463;DHT22;4268;52.506;13.462;2023-05-16T07:49:32;13.50;99.90
8463;DHT22;4268;52.506;13.462;2023-05-16T07:51:58;13.60;99.90
8463;DHT22;4268;52.506;13.462;2023-05-16T07:54:23;13.70;99.90
8463;DHT22;4268;52.506;13.462;2023-05-16T07:56:49;13.80;99.90
8463;DHT22;4268;52.506;13.462;2023-05-16T07:59:14;13.80;99.90
8463;DHT22;4268;52.506;13.462;2023-05-16T08:01:40;13.70;99.90
8463;DHT22;4268;52.506;13.462;2023-05-16T08:04:05;13.70;99.90
8463;DHT22;4268;52.506;13.462;2023-05-16T08:06:31;13.60;99.90
8463;DHT22;4268;52.506;13.462;2023-05-16T08:08:56;13.50;99.90
8463;DHT22;4268;52.506;13.462;2023-05-16T08:11:22;13.50;99.90
8463;DHT22;4268;52.506;13.462;2023-05-16T08:13:48;13.50;99.90
8463;DHT22;4268;52.506;13.462;2023-05-16T08:16:14;13.50;99.90
8463;DHT22;4268;52.506;13.462;2023-05-16T08:18:39;13.50;99.90
8463;DHT22;4268;52.506;13.462;2023-05-16T08:21:05;13.50;99.90
8463;DHT22;4268;52.506;13.462;2023-05-16T08:23:30;13.30;99.90
8463;DHT22;4268;52.506;13.462;2023-05-16T08:25:56;13.30;99.90
8463;DHT22;4268;52.506;13.462;2023-05-16T08:28:23;13.30;99.90
8463;DHT22;4268;52.506;13.462;2023-05-16T08:30:48;13.20;99.90
8463;DHT22;4268;52.506;13.462;2023-05-16T08:33:14;13.10;99.90
8463;DHT22;4268;52.506;13.462;2023-05-16T08:35:43;13.10;99.90
8463;DHT22;4268;52.506;13.462;2023-05-16T08:38:09;13.10;99.90
8463;DHT22;4268;52.506;13.462;2023-05-16T08:40:35;13.10;99.90
8463;DHT22;4268;52.506;13.462;2023-05-16T08:43:01;13.10;99.90
8463;DHT22;4268;52.506;13.462;2023-05-16T08:45:27;13.20;99.90
8463;DHT22;4268;52.506;13.462;2023-05-16T08:47:54;13.20;99.90
8463;DHT22;4268;52.506;13.462;2023-05-16T08:50:21;13.20;99.90
8463;DHT22;4268;52.506;13.462;2023-05-16T08:52:50;13.20;99.90
8463;DHT22;4268;52.506;13.462;2023-05-16T08:55:19;13.20;99.90
8463;DHT22;4268;52.506;13.462;2023-05-16T08:57:45;13.30;99.90
8463;DHT22;4268;52.506;13.462;2023-05-16T09:00:11;13.30;99.90
8463;DHT22;4268;52.506;13.462;2023-05-16T09:02:41;13.30;99.90
8463;DHT22;4268;52.506;13.462;2023-05-16T09:05:10;13.40;99.90
8463;DHT22;4268;52.506;13.462;2023-05-16T09:07:36;13.40;99.90
8463;DHT22;4268;52.506;13.462;2023-05-16T09:10:01;13.30;99.90
8463;DHT22;4268;52.506;13.462;2023-05-16T09:12:27;13.40;99.90
8463;DHT22;4268;52.506;13.462;2023-05-16T09:14:52;13.40;99.90
8463;DHT22;4268;52.506;13.462;2023-05-16T09:17:18;13.50;99.90
8463;DHT22;4268;52.506;13.462;2023-05-16T09:19:44;13.60;99.90
8463;DHT22;4268;52.506;13.462;2023-05-16T09:22:11;13.70;99.90
8463;DHT22;4268;52.506;13.462;2023-05-16T09:24:39;13.70;99.90
8463;DHT22;4268;52.506;13.462;2023-05-16T09:27:09;13.70;99.90
8463;DHT22;4268;52.506;13.462;2023-05-16T09:29:35;13.70;99.90
8463;DHT22;4268;52.506;13.462;2023-05-16T09:32:14;13.70;99.90
8463;DHT22;4268;52.506;13.462;2023-05-16T09:34:44;13.70;99.90
8463;DHT22;4268;52.506;13.462;2023-05-16T09:37:12;13.70;99.90
8463;DHT22;4268;52.506;13.462;2023-05-16T09:39:48;13.70;99.90
8463;DHT22;4268;52.506;13.462;2023-05-16T09:42:15;13.60;99.90
8463;DHT22;4268;52.506;13.462;2023-05-16T09:44:44;13.60;99.90
8463;DHT22;4268;52.506;13.462;2023-05-16T09:47:13;13.50;99.90
8463;DHT22;4268;52.506;13.462;2023-05-16T09:49:39;13.60;99.90
8463;DHT22;4268;52.506;13.462;2023-05-16T09:52:05;13.90;99.90
8463;DHT22;4268;52.506;13.462;2023-05-16T09:54:31;13.90;99.90
8463;DHT22;4268;52.506;13.462;2023-05-16T09:56:58;14.00;99.90
8463;DHT22;4268;52.506;13.462;2023-05-16T09:59:27;14.10;99.90
8463;DHT22;4268;52.506;13.462;2023-05-16T10:01:52;14.10;99.90
8463;DHT22;4268;52.506;13.462;2023-05-16T10:04:19;14.10;99.90
8463;DHT22;4268;52.506;13.462;2023-05-16T10:06:45;14.10;99.90
8463;DHT22;4268;52.506;13.462;2023-05-16T10:09:12;14.10;99.90
8463;DHT22;4268;52.506;13.462;2023-05-16T10:11:41;14.00;99.90
8463;DHT22;4268;52.506;13.462;2023-05-16T10:14:10;14.00;99.90
8463;DHT22;4268;52.506;13.462;2023-05-16T10:16:36;14.00;99.90
8463;DHT22;4268;52.506;13.462;2023-05-16T10:19:02;13.90;99.90
8463;DHT22;4268;52.506;13.462;2023-05-16T10:21:28;13.90;99.90
8463;DHT22;4268;52.506;13.462;2023-05-16T10:23:57;13.90;99.90
8463;DHT22;4268;52.506;13.462;2023-05-16T10:26:25;13.90;99.90
8463;DHT22;4268;52.506;13.462;2023-05-16T10:28:51;13.90;99.90
8463;DHT22;4268;52.506;13.462;2023-05-16T10:31:17;14.10;99.90
8463;DHT22;4268;52.506;13.462;2023-05-16T10:33:43;14.00;99.90
8463;DHT22;4268;52.506;13.462;2023-05-16T10:36:09;14.00;99.90
8463;DHT22;4268;52.506;13.462;2023-05-16T10:38:36;14.00;99.90
8463;DHT22;4268;52.506;13.462;2023-05-16T10:41:02;13.90;99.90
8463;DHT22;4268;52.506;13.462;2023-05-16T10:43:29;13.90;99.90
8463;DHT22;4268;52.506;13.462;2023-05-16T10:46:02;14.10;99.90
8463;DHT22;4268;52.506;13.462;2023-05-16T10:48:30;14.40;99.90
8463;DHT22;4268;52.506;13.462;2023-05-16T10:50:56;14.60;99.90
8463;DHT22;4268;52.506;13.462;2023-05-16T11:01:25;14.20;99.90
8463;DHT22;4268;52.506;13.462;2023-05-16T11:11:45;13.90;99.90
8463;DHT22;4268;52.506;13.462;2023-05-16T11:17:13;13.60;99.90
8463;DHT22;4268;52.506;13.462;2023-05-16T11:19:55;13.60;99.90
8463;DHT22;4268;52.506;13.462;2023-05-16T11:22:29;13.70;99.90
8463;DHT22;4268;52.506;13.462;2023-05-16T11:25:00;13.80;99.90
8463;DHT22;4268;52.506;13.462;2023-05-16T11:27:35;14.00;99.90
8463;DHT22;4268;52.506;13.462;2023-05-16T11:30:11;14.10;99.20
8463;DHT22;4268;52.506;13.462;2023-05-16T11:32:40;14.30;99.40
8463;DHT22;4268;52.506;13.462;2023-05-16T11:35:08;14.40;98.80
8463;DHT22;4268;52.506;13.462;2023-05-16T11:37:34;14.50;98.50
8463;DHT22;4268;52.506;13.462;2023-05-16T11:40:02;14.50;98.20
8463;DHT22;4268;52.506;13.462;2023-05-16T11:42:38;14.00;97.90
8463;DHT22;4268;52.506;13.462;2023-05-16T11:45:15;14.40;98.20
8463;DHT22;4268;52.506;13.462;2023-05-16T11:47:42;14.30;98.10
8463;DHT22;4268;52.506;13.462;2023-05-16T11:50:20;14.20;97.90
8463;DHT22;4268;52.506;13.462;2023-05-16T11:52:48;14.20;97.40
8463;DHT22;4268;52.506;13.462;2023-05-16T11:55:19;14.30;97.50
8463;DHT22;4268;52.506;13.462;2023-05-16T11:57:46;14.40;97.10
8463;DHT22;4268;52.506;13.462;2023-05-16T12:00:22;14.60;97.10
8463;DHT22;4268;52.506;13.462;2023-05-16T12:02:52;14.90;96.90
8463;DHT22;4268;52.506;13.462;2023-05-16T12:05:19;15.20;95.60
8463;DHT22;4268;52.506;13.462;2023-05-16T12:07:49;15.30;95.20
8463;DHT22;4268;52.506;13.462;2023-05-16T12:10:15;15.30;94.40
8463;DHT22;4268;52.506;13.462;2023-05-16T12:12:45;15.20;94.60
8463;DHT22;4268;52.506;13.462;2023-05-16T12:15:12;15.20;94.60
8463;DHT22;4268;52.506;13.462;2023-05-16T12:17:39;15.10;94.60
8463;DHT22;4268;52.506;13.462;2023-05-16T12:20:06;15.00;94.70
8463;DHT22;4268;52.506;13.462;2023-05-16T12:22:42;15.00;95.00
8463;DHT22;4268;52.506;13.462;2023-05-16T12:25:31;14.90;95.10
8463;DHT22;4268;52.506;13.462;2023-05-16T12:27:58;14.90;95.60
8463;DHT22;4268;52.506;13.462;2023-05-16T12:30:26;14.90;94.70
8463;DHT22;4268;52.506;13.462;2023-05-16T12:33:01;14.90;94.40
8463;DHT22;4268;52.506;13.462;2023-05-16T12:35:30;14.80;94.30
8463;DHT22;4268;52.506;13.462;2023-05-16T12:37:56;14.90;94.60
8463;DHT22;4268;52.506;13.462;2023-05-16T12:40:22;15.00;94.70
8463;DHT22;4268;52.506;13.462;2023-05-16T12:42:49;15.10;94.50
8463;DHT22;4268;52.506;13.462;2023-05-16T12:45:16;15.20;94.20
8463;DHT22;4268;52.506;13.462;2023-05-16T12:47:42;15.30;93.80
8463;DHT22;4268;52.506;13.462;2023-05-16T12:50:13;15.30;93.50
8463;DHT22;4268;52.506;13.462;2023-05-16T12:52:49;15.30;93.40
8463;DHT22;4268;52.506;13.462;2023-05-16T12:55:16;15.50;93.70
8463;DHT22;4268;52.506;13.462;2023-05-16T12:57:43;15.70;92.90
8463;DHT22;4268;52.506;13.462;2023-05-16T13:00:13;15.90;92.00
8463;DHT22;4268;52.506;13.462;2023-05-16T13:02:39;16.00;91.20
8463;DHT22;4268;52.506;13.462;2023-05-16T13:05:05;16.10;91.60
8463;DHT22;4268;52.506;13.462;2023-05-16T13:07:34;16.20;90.70
8463;DHT22;4268;52.506;13.462;2023-05-16T13:10:00;16.30;90.30
8463;DHT22;4268;52.506;13.462;2023-05-16T13:12:26;16.40;90.00
8463;DHT22;4268;52.506;13.462;2023-05-16T13:14:52;16.50;89.70
8463;DHT22;4268;52.506;13.462;2023-05-16T13:17:18;16.60;87.60
8463;DHT22;4268;52.506;13.462;2023-05-16T13:19:44;16.70;87.50
8463;DHT22;4268;52.506;13.462;2023-05-16T13:22:09;16.70;87.30
8463;DHT22;4268;52.506;13.462;2023-05-16T13:24:35;16.90;87.40
8463;DHT22;4268;52.506;13.462;2023-05-16T13:27:00;17.00;86.60
8463;DHT22;4268;52.506;13.462;2023-05-16T13:29:26;17.20;86.70
8463;DHT22;4268;52.506;13.462;2023-05-16T13:31:51;17.20;86.00
8463;DHT22;4268;52.506;13.462;2023-05-16T13:34:17;17.50;85.20
8463;DHT22;4268;52.506;13.462;2023-05-16T13:36:42;17.50;83.00
8463;DHT22;4268;52.506;13.462;2023-05-16T13:39:10;17.50;82.00
8463;DHT22;4268;52.506;13.462;2023-05-16T13:41:37;17.60;82.40
8463;DHT22;4268;52.506;13.462;2023-05-16T13:44:04;17.70;81.10
8463;DHT22;4268;52.506;13.462;2023-05-16T13:46:30;17.70;79.80
8463;DHT22;4268;52.506;13.462;2023-05-16T13:48:55;17.80;78.50
8463;DHT22;4268;52.506;13.462;2023-05-16T13:51:21;17.70;77.80
8463;DHT22;4268;52.506;13.462;2023-05-16T13:53:46;17.70;78.50
8463;DHT22;4268;52.506;13.462;2023-05-16T13:56:12;17.70;78.30
8463;DHT22;4268;52.506;13.462;2023-05-16T13:58:37;17.60;77.30
8463;DHT22;4268;52.506;13.462;2023-05-16T14:01:03;17.50;76.60
8463;DHT22;4268;52.506;13.462;2023-05-16T14:03:28;17.40;76.10
8463;DHT22;4268;52.506;13.462;2023-05-16T14:05:54;17.30;75.60
8463;DHT22;4268;52.506;13.462;2023-05-16T14:08:19;17.10;74.50
8463;DHT22;4268;52.506;13.462;2023-05-16T14:10:45;17.00;74.50
8463;DHT22;4268;52.506;13.462;2023-05-16T14:13:10;17.10;75.60
8463;DHT22;4268;52.506;13.462;2023-05-16T14:15:36;17.30;75.50
8463;DHT22;4268;52.506;13.462;2023-05-16T14:18:02;17.40;74.50
8463;DHT22;4268;52.506;13.462;2023-05-16T14:20:29;17.30;73.00
8463;DHT22;4268;52.506;13.462;2023-05-16T14:22:55;17.10;71.80
8463;DHT22;4268;52.506;13.462;2023-05-16T14:25:21;17.00;72.30
8463;DHT22;4268;52.506;13.462;2023-05-16T14:27:46;17.00;73.00
8463;DHT22;4268;52.506;13.462;2023-05-16T14:30:12;17.00;73.00
8463;DHT22;4268;52.506;13.462;2023-05-16T14:32:37;17.10;73.60
8463;DHT22;4268;52.506;13.462;2023-05-16T14:35:03;17.10;73.90
8463;DHT22;4268;52.506;13.462;2023-05-16T14:37:31;17.10;73.20
8463;DHT22;4268;52.506;13.462;2023-05-16T14:39:57;17.00;73.30
8463;DHT22;4268;52.506;13.462;2023-05-16T14:42:23;17.00;73.10
8463;DHT22;4268;52.506;13.462;2023-05-16T14:44:49;17.00;72.60
8463;DHT22;4268;52.506;13.462;2023-05-16T14:47:15;16.90;72.30
8463;DHT22;4268;52.506;13.462;2023-05-16T14:49:41;16.90;72.60
8463;DHT22;4268;52.506;13.462;2023-05-16T14:52:06;16.90;70.80
8463;DHT22;4268;52.506;13.462;2023-05-16T14:54:32;17.10;70.20
8463;DHT22;4268;52.506;13.462;2023-05-16T14:56:58;17.30;70.20
8463;DHT22;4268;52.506;13.462;2023-05-16T14:59:24;17.40;68.40
8463;DHT22;4268;52.506;13.462;2023-05-16T15:01:50;17.50;67.40
8463;DHT22;4268;52.506;13.462;2023-05-16T15:04:15;17.40;66.80
8463;DHT22;4268;52.506;13.462;2023-05-16T15:06:41;17.40;66.90
8463;DHT22;4268;52.506;13.462;2023-05-16T15:09:06;17.40;67.30
8463;DHT22;4268;52.506;13.462;2023-05-16T15:11:32;17.30;67.00
8463;DHT22;4268;52.506;13.462;2023-05-16T15:13:57;17.20;67.20
8463;DHT22;4268;52.506;13.462;2023-05-16T15:16:23;17.20;67.90
8463;DHT22;4268;52.506;13.462;2023-05-16T15:18:49;17.20;66.90
8463;DHT22;4268;52.506;13.462;2023-05-16T15:21:14;17.10;66.50
8463;DHT22;4268;52.506;13.462;2023-05-16T15:23:40;17.20;66.60
8463;DHT22;4268;52.506;13.462;2023-05-16T15:26:06;17.30;65.80
8463;DHT22;4268;52.506;13.462;2023-05-16T15:28:32;17.40;65.70
8463;DHT22;4268;52.506;13.462;2023-05-16T15:30:57;17.30;64.40
8463;DHT22;4268;52.506;13.462;2023-05-16T15:33:23;17.20;63.40
8463;DHT22;4268;52.506;13.462;2023-05-16T15:35:48;17.00;63.60
8463;DHT22;4268;52.506;13.462;2023-05-16T15:38:14;16.80;64.20
8463;DHT22;4268;52.506;13.462;2023-05-16T15:40:39;16.70;63.60
8463;DHT22;4268;52.506;13.462;2023-05-16T15:43:05;16.70;63.90
8463;DHT22;4268;52.506;13.462;2023-05-16T15:45:32;16.70;64.10
8463;DHT22;4268;52.506;13.462;2023-05-16T15:47:57;16.70;64.10
8463;DHT22;4268;52.506;13.462;2023-05-16T15:50:23;16.70;62.80
8463;DHT22;4268;52.506;13.462;2023-05-16T15:52:48;16.70;62.70
8463;DHT22;4268;52.506;13.462;2023-05-16T15:55:14;16.90;62.60
8463;DHT22;4268;52.506;13.462;2023-05-16T15:57:39;16.80;61.60
8463;DHT22;4268;52.506;13.462;2023-05-16T16:00:06;16.70;60.60
8463;DHT22;4268;52.506;13.462;2023-05-16T16:02:32;16.70;60.40
8463;DHT22;4268;52.506;13.462;2023-05-16T16:04:57;16.70;60.80
8463;DHT22;4268;52.506;13.462;2023-05-16T16:07:23;16.60;60.80
8463;DHT22;4268;52.506;13.462;2023-05-16T16:09:49;16.60;60.40
8463;DHT22;4268;52.506;13.462;2023-05-16T16:12:14;16.50;60.00
8463;DHT22;4268;52.506;13.462;2023-05-16T16:14:40;16.50;60.70